Terminal Aerodrome Forecast
Issued by NWS

Home | Current Version | Previous Version | Text Only | Print | Product List | Glossary On
Versions: 1 2 3 4 5 6 7 8 9 10 11 12 13 14 15 16 17 18 19
000
FTUS45 KBYZ 171326 AAA
TAFLVM
TAF AMD
KLVM 171326Z 1713/1812 00000KT P6SM BKN004
      TEMPO 1713/1715 SCT004 BKN150
     FM171500 26009KT P6SM FEW004 BKN150
     FM171600 23018G28KT P6SM BKN100
     FM172100 23025G35KT P6SM BKN120=

USA.gov is the U.S. government's official web portal to all federal, state and local government web resources and services.